Disclaimer

    

CYCD

METAR CYCD 111400Z 27007KT 30SM BKN250 09/04 A3025 RMK CI5 SLP247=

METAR CYCD 111300Z 27003KT 30SM SCT250 06/03 A3024 RMK CI3 SLP243=

LWIS CYCD 111200Z AUTO 27005KT 180V280 07/03 A3025=

TAF CYCD 102338Z 1100/1104 VRB03KT P6SM SCT040 SCT120 BKN200 TEMPO 1100/1104 BKN040 BKN120 RMK NXT FCST WILL BE ISSUED AT 111445Z=

CYVR

METAR CYVR 111400Z 11004KT 25SM BKN210 BKN240 10/07 A3025 RMK CI6CS1 SLP245=

METAR CYVR 111300Z 01004KT 20SM BKN240 07/05 A3024 RMK CI6 CONTRAILS SLP241=

METAR CYVR 111200Z 00000KT 20SM FEW240 09/05 A3024 RMK CI1 SLP240=

TAF CYVR 111139Z 1112/1218 09005KT P6SM FEW240 BECMG 1116/1118 28010KT FEW060 SCT150
FM120500 27005KT P6SM FEW060 BKN120
FM120900 32008KT P6SM FEW030 BKN060 TEMPO 1209/1218 P6SM -SHRA RMK NXT FCST BY 111500Z=

CYXX

METAR CYXX 111400Z 02003KT 30SM SCT220 09/07 A3024 RMK CI3 CONTRAILS SLP243=

METAR CYXX 111300Z 32002KT 30SM SCT210 06/05 A3023 RMK CI3 SLP240=

METAR CYXX 111200Z 00000KT 30SM SKC 06/05 A3023 RMK SLP239=

TAF CYXX 111139Z 1112/1212 VRB03KT P6SM SKC BECMG 1118/1120 22008KT
FM120600 VRB03KT P6SM BKN150 RMK NXT FCST BY 111800Z=

Supplemental information

Lower mainland ATIS: 1-877-517-2847

CZBB (Boundary Bay) current winds

Upper winds (Vancouver)

Data fromValid at300060009000
11000011060030113311+023412-03
11000011120036059900+023605-03
11000012000099000905+059900-01

NOTAMs

On October 10, 2019, NAV CANADA changed to the ICAO NOTAM format. They are now available only through Collaborative Flight Planning Services (CFPS) (plan.navcanada.ca). I'm working to update this site to pull in the relevant NOTAMs in the new format.